46NY weather

Savannah Agri-Air Airport
Savannah, New York, United States

Public forecast

Using degrees Fahrenheit for public forecast. Weather courtesy of forecast.io.

Closest aviation weather report (METAR) to Savannah Agri-Air Airport

Closest report is Oswego County Airport, 25.8 nm (47.7 km) NE. Retrieved 2019/11/13 20:54 UTC (24 minutes ago):

KFZY 132054Z AUTO 26006KT 10SM CLR M06/M14 A3039 RMK AO2 SLP300 T10561139 50002

Closest aviation forecast (TAF) to Savannah Agri-Air Airport

Closest forecast is Syracuse Hancock International Airport, 29.2 nm (54.2 km) E. Retrieved 2019/11/13 18:36 UTC (3 hours ago):

TAF KSYR 131733Z 1318/1418 28005KT P6SM SCT040 FM132200 VRB04KT P6SM BKN150 FM140300 12007KT P6SM BKN080 FM141400 18007G15KT P6SM BKN080